createdAt,value
2019-05-23T00:00:50.645Z,99102.68
2019-05-23T00:03:38.279Z,99098.67
2019-05-23T00:06:15.474Z,99100.54
2019-05-23T00:08:47.229Z,99100.77
2019-05-23T00:11:30.554Z,99097.65
2019-05-23T00:14:06.085Z,99100.34
2019-05-23T00:16:36.798Z,99099.66
2019-05-23T00:19:08.165Z,99098.69
2019-05-23T00:21:39.365Z,99098.25
2019-05-23T00:24:10.962Z,99109.37
2019-05-23T00:26:41.433Z,99110.19
2019-05-23T00:29:12.420Z,99106.56
2019-05-23T00:31:49.513Z,99105.55
2019-05-23T00:34:19.150Z,99108.03
2019-05-23T00:36:49.700Z,99097.88
2019-05-23T00:39:20.552Z,99111.02
2019-05-23T00:41:50.846Z,99102.01
2019-05-23T00:44:20.999Z,99104.27
2019-05-23T00:46:51.170Z,99110.06
2019-05-23T00:49:22.298Z,99112.48
2019-05-23T00:51:53.066Z,99110.55
2019-05-23T00:54:23.093Z,99116.30
2019-05-23T00:56:54.919Z,99113.56
2019-05-23T00:59:27.452Z,99111.59
2019-05-23T01:01:58.146Z,99122.20
2019-05-23T01:04:28.333Z,99118.91
2019-05-23T01:06:58.556Z,99118.28
2019-05-23T01:09:28.748Z,99113.89
2019-05-23T01:11:58.500Z,99111.81
2019-05-23T01:14:28.874Z,99114.17
2019-05-23T01:16:59.115Z,99124.58
2019-05-23T01:19:29.184Z,99122.92
2019-05-23T01:22:03.082Z,99129.36
2019-05-23T01:24:34.913Z,99133.37
2019-05-23T01:27:06.062Z,99137.95
2019-05-23T01:29:50.051Z,99135.56
2019-05-23T01:32:23.727Z,99139.48
2019-05-23T01:34:54.056Z,99146.17
2019-05-23T01:37:24.591Z,99144.31
2019-05-23T01:39:54.197Z,99148.53
2019-05-23T01:42:24.449Z,99150.02
2019-05-23T01:44:55.963Z,99155.34
2019-05-23T01:47:27.823Z,99163.84
2019-05-23T01:49:58.235Z,99159.94
2019-05-23T01:52:28.948Z,99164.14
2019-05-23T01:54:59.581Z,99169.39
2019-05-23T01:57:32.013Z,99164.05
2019-05-23T02:00:10.030Z,99167.05
2019-05-23T02:02:37.916Z,99165.63
2019-05-23T02:05:10.193Z,99169.13
2019-05-23T02:07:40.538Z,99161.38
2019-05-23T02:10:12.710Z,99160.13
2019-05-23T02:12:42.613Z,99167.44
2019-05-23T02:15:12.907Z,99168.23
2019-05-23T02:17:42.476Z,99172.18
2019-05-23T02:20:14.352Z,99167.38
2019-05-23T02:22:45.016Z,99173.99
2019-05-23T02:25:17.001Z,99173.64
2019-05-23T02:27:48.571Z,99179.73
2019-05-23T02:30:33.888Z,99177.08
2019-05-23T02:32:54.150Z,99175.74
2019-05-23T02:35:23.760Z,99181.72
2019-05-23T02:37:55.226Z,99179.58
2019-05-23T02:40:43.050Z,99185.18
2019-05-23T02:43:17.391Z,99185.45
2019-05-23T02:45:53.697Z,99188.02
2019-05-23T02:48:25.422Z,99189.19
2019-05-23T02:51:08.942Z,99194.11
2019-05-23T02:53:39.749Z,99193.78
2019-05-23T02:56:14.401Z,99192.82
2019-05-23T02:59:13.563Z,99198.98
2019-05-23T03:02:16.662Z,99197.27
2019-05-23T03:04:47.881Z,99197.94
2019-05-23T03:07:20.318Z,99206.14
2019-05-23T03:09:51.881Z,99203.25
2019-05-23T03:12:25.142Z,99205.87
2019-05-23T03:14:53.669Z,99205.64
2019-05-23T03:17:27.125Z,99215.22
2019-05-23T03:20:03.021Z,99207.06
2019-05-23T03:22:42.038Z,99213.80
2019-05-23T03:25:39.085Z,99213.81
2019-05-23T03:28:15.344Z,99218.30
2019-05-23T03:30:52.219Z,99215.02
2019-05-23T03:33:22.284Z,99211.70
2019-05-23T03:35:56.443Z,99214.80
2019-05-23T03:38:27.997Z,99210.84
2019-05-23T03:40:58.298Z,99216.83
2019-05-23T03:43:29.204Z,99211.94
2019-05-23T03:46:07.871Z,99215.98
2019-05-23T03:48:38.647Z,99216.83
2019-05-23T03:51:10.271Z,99216.05
2019-05-23T03:53:42.600Z,99219.83
2019-05-23T03:56:13.602Z,99215.49
2019-05-23T03:58:43.402Z,99214.99
2019-05-23T04:01:14.895Z,99209.17
2019-05-23T04:03:45.070Z,99206.64
2019-05-23T04:06:15.540Z,99210.20
2019-05-23T04:08:45.483Z,99217.16
2019-05-23T04:11:15.363Z,99218.74
2019-05-23T04:13:45.177Z,99219.58
2019-05-23T04:16:14.918Z,99230.17
2019-05-23T04:18:44.544Z,99235.44
2019-05-23T04:21:14.519Z,99238.13
2019-05-23T04:23:44.238Z,99234.28
2019-05-23T04:26:14.861Z,99237.16
2019-05-23T04:28:44.922Z,99236.84
2019-05-23T04:31:14.569Z,99238.14
2019-05-23T04:33:44.863Z,99242.36
2019-05-23T04:36:14.567Z,99239.84
2019-05-23T04:38:44.531Z,99239.60
2019-05-23T04:41:14.611Z,99246.45
2019-05-23T04:43:44.248Z,99255.36
2019-05-23T04:46:15.439Z,99251.23
2019-05-23T04:48:45.325Z,99256.39
2019-05-23T04:51:15.216Z,99259.73
2019-05-23T04:53:44.977Z,99256.39
2019-05-23T04:56:14.832Z,99260.26
2019-05-23T04:58:45.681Z,99264.21
2019-05-23T05:01:16.829Z,99265.21
2019-05-23T05:03:47.085Z,99272.34
2019-05-23T05:06:16.711Z,99269.48
2019-05-23T05:08:47.060Z,99272.69
2019-05-23T05:11:17.823Z,99272.81
2019-05-23T05:13:47.947Z,99280.99
2019-05-23T05:16:18.012Z,99282.48
2019-05-23T05:18:47.996Z,99284.11
2019-05-23T05:21:18.031Z,99292.28
2019-05-23T05:23:48.070Z,99290.86
2019-05-23T05:26:24.102Z,99291.56
2019-05-23T05:28:54.033Z,99296.48
2019-05-23T05:31:24.916Z,99301.50
2019-05-23T05:33:54.705Z,99301.08
2019-05-23T05:36:25.017Z,99295.84
2019-05-23T05:38:58.145Z,99305.70
2019-05-23T05:41:28.340Z,99299.45
2019-05-23T05:43:58.236Z,99304.41
2019-05-23T05:46:28.384Z,99305.69
2019-05-23T05:48:59.784Z,99310.53
2019-05-23T05:51:31.026Z,99309.71
2019-05-23T05:54:01.377Z,99314.20
2019-05-23T05:56:31.061Z,99316.81
2019-05-23T05:59:00.873Z,99319.73
2019-05-23T06:01:34.337Z,99311.59
2019-05-23T06:04:03.310Z,99322.22
2019-05-23T06:06:34.675Z,99328.45
2019-05-23T06:09:16.044Z,99326.27
2019-05-23T06:11:45.869Z,99331.80
2019-05-23T06:14:16.032Z,99336.05
2019-05-23T06:16:46.610Z,99339.30
2019-05-23T06:19:16.626Z,99341.14
2019-05-23T06:21:46.724Z,99345.83
2019-05-23T06:24:16.778Z,99347.14
2019-05-23T06:26:47.059Z,99354.66
2019-05-23T06:29:16.953Z,99355.52
2019-05-23T06:31:46.843Z,99358.38
2019-05-23T06:34:16.705Z,99356.70
2019-05-23T06:36:47.254Z,99360.73
2019-05-23T06:39:17.639Z,99356.69
2019-05-23T06:41:47.489Z,99357.95
2019-05-23T06:44:18.889Z,99360.51
2019-05-23T06:46:49.015Z,99367.12
2019-05-23T06:49:18.752Z,99376.47
2019-05-23T06:51:48.363Z,99376.56
2019-05-23T06:54:18.004Z,99386.12
2019-05-23T06:56:47.936Z,99382.82
2019-05-23T06:59:17.638Z,99383.80
2019-05-23T07:01:47.336Z,99391.87
2019-05-23T07:04:18.912Z,99389.63
2019-05-23T07:06:48.897Z,99387.12
2019-05-23T07:09:20.001Z,99390.71
2019-05-23T07:11:51.740Z,99387.05
2019-05-23T07:14:21.439Z,99387.92
2019-05-23T07:16:50.974Z,99397.94
2019-05-23T07:19:21.515Z,99400.17
2019-05-23T07:21:51.492Z,99402.08
2019-05-23T07:24:21.117Z,99405.77
2019-05-23T07:26:51.088Z,99403.28
2019-05-23T07:29:21.375Z,99397.83
2019-05-23T07:31:51.161Z,99398.73
2019-05-23T07:34:21.525Z,99394.34
2019-05-23T07:36:51.461Z,99403.70
2019-05-23T07:39:21.449Z,99404.85
2019-05-23T07:41:52.556Z,99403.59
2019-05-23T07:44:22.533Z,99405.41
2019-05-23T07:46:52.605Z,99412.14
2019-05-23T07:49:22.472Z,99408.69
2019-05-23T07:51:52.681Z,99410.75
2019-05-23T07:54:24.089Z,99414.03
2019-05-23T07:56:54.315Z,99419.51
2019-05-23T07:59:24.318Z,99423.94
2019-05-23T08:02:09.961Z,99431.13
2019-05-23T08:04:39.800Z,99433.75
2019-05-23T08:07:11.479Z,99441.75
2019-05-23T08:09:41.558Z,99438.34
2019-05-23T08:12:11.161Z,99447.13
2019-05-23T08:14:40.947Z,99450.13
2019-05-23T08:17:11.291Z,99446.08
2019-05-23T08:19:49.546Z,99451.72
2019-05-23T08:22:12.772Z,99455.98
2019-05-23T08:24:42.908Z,99455.97
2019-05-23T08:27:13.381Z,99462.76
2019-05-23T08:29:43.363Z,99461.49
2019-05-23T08:32:13.250Z,99460.39
2019-05-23T08:34:43.462Z,99466.42
2019-05-23T08:37:14.224Z,99463.48
2019-05-23T08:39:44.628Z,99465.59
2019-05-23T08:42:14.665Z,99465.89
2019-05-23T08:44:44.886Z,99459.94
2019-05-23T08:47:15.406Z,99468.60
2019-05-23T08:49:45.021Z,99463.05
2019-05-23T08:52:14.998Z,99467.19
2019-05-23T08:54:45.812Z,99465.78
2019-05-23T08:57:16.937Z,99469.61
2019-05-23T08:59:46.551Z,99469.59
2019-05-23T09:02:16.474Z,99466.17
2019-05-23T09:05:03.376Z,99463.85
2019-05-23T09:07:18.290Z,99461.30
2019-05-23T09:09:48.889Z,99471.90
2019-05-23T09:12:19.183Z,99468.67
2019-05-23T09:14:49.351Z,99472.25
2019-05-23T09:17:19.418Z,99475.09
2019-05-23T09:19:48.936Z,99471.77
2019-05-23T09:22:18.822Z,99465.61
2019-05-23T09:24:48.489Z,99470.09
2019-05-23T09:27:18.112Z,99474.79
2019-05-23T09:29:47.836Z,99470.91
2019-05-23T09:32:18.611Z,99472.55
2019-05-23T09:34:48.211Z,99475.52
2019-05-23T09:37:18.388Z,99477.22
2019-05-23T09:39:49.490Z,99481.95
2019-05-23T09:42:19.110Z,99486.56
2019-05-23T09:44:49.097Z,99481.67
2019-05-23T09:47:18.752Z,99486.52
2019-05-23T09:49:55.868Z,99479.64
2019-05-23T09:52:21.807Z,99482.31
2019-05-23T09:54:51.548Z,99486.22
2019-05-23T09:57:21.865Z,99479.66
2019-05-23T09:59:51.787Z,99482.23
2019-05-23T10:02:21.435Z,99485.95
2019-05-23T10:04:52.143Z,99490.73
2019-05-23T10:07:22.104Z,99492.98
2019-05-23T10:09:51.774Z,99493.48
2019-05-23T10:12:22.653Z,99494.24
2019-05-23T10:14:52.530Z,99497.36
2019-05-23T10:17:22.454Z,99499.97
2019-05-23T10:19:52.482Z,99500.34
2019-05-23T10:22:22.361Z,99494.45
2019-05-23T10:24:52.098Z,99498.16
2019-05-23T10:27:21.992Z,99491.61
2019-05-23T10:29:51.642Z,99494.37
2019-05-23T10:32:21.669Z,99501.00
2019-05-23T10:34:51.201Z,99491.62
2019-05-23T10:37:21.177Z,99499.90
2019-05-23T10:39:55.272Z,99490.45
2019-05-23T10:42:27.861Z,99491.61
2019-05-23T10:44:57.553Z,99496.56
2019-05-23T10:47:27.619Z,99496.89
2019-05-23T10:49:57.404Z,99499.56
2019-05-23T10:52:27.215Z,99497.37
2019-05-23T10:54:56.908Z,99492.88
2019-05-23T10:57:26.869Z,99492.74
2019-05-23T10:59:56.987Z,99482.39
2019-05-23T11:02:27.332Z,99490.16
2019-05-23T11:04:57.423Z,99488.05
2019-05-23T11:07:27.550Z,99487.69
2019-05-23T11:09:57.204Z,99483.34
2019-05-23T11:12:27.883Z,99486.59
2019-05-23T11:14:58.069Z,99486.74
2019-05-23T11:17:27.714Z,99485.70
2019-05-23T11:19:57.404Z,99486.97
2019-05-23T11:22:27.043Z,99490.98
2019-05-23T11:24:56.985Z,99488.08
2019-05-23T11:27:26.867Z,99485.83
2019-05-23T11:29:56.646Z,99486.36
2019-05-23T11:32:26.649Z,99492.51
2019-05-23T11:34:56.275Z,99492.45
2019-05-23T11:37:25.974Z,99498.38
2019-05-23T11:39:55.844Z,99496.05
2019-05-23T11:42:25.736Z,99498.10
2019-05-23T11:44:55.362Z,99508.92
2019-05-23T11:47:31.021Z,99503.53
2019-05-23T11:49:58.219Z,99505.84
2019-05-23T11:52:28.199Z,99508.73
2019-05-23T11:54:57.939Z,99503.31
2019-05-23T11:57:27.565Z,99506.30
2019-05-23T11:59:57.655Z,99509.64
2019-05-23T12:02:27.032Z,99509.78
2019-05-23T12:04:58.571Z,99509.84
2019-05-23T12:07:29.912Z,99506.49
2019-05-23T12:09:59.587Z,99505.01
2019-05-23T12:12:29.437Z,99510.08
2019-05-23T12:14:59.122Z,99504.52
2019-05-23T12:17:31.095Z,99502.03
2019-05-23T12:20:00.723Z,99508.24
2019-05-23T12:22:30.603Z,99513.02
2019-05-23T12:25:18.270Z,99507.64
2019-05-23T12:27:32.012Z,99509.80
2019-05-23T12:30:01.787Z,99504.80
2019-05-23T12:32:31.460Z,99504.50
2019-05-23T12:35:10.478Z,99516.62
2019-05-23T12:37:32.577Z,99510.22
2019-05-23T12:40:03.120Z,99517.42
2019-05-23T12:42:32.826Z,99510.77
2019-05-23T12:45:03.492Z,99507.80
2019-05-23T12:47:34.782Z,99503.66
2019-05-23T12:50:10.421Z,99504.34
2019-05-23T12:52:40.133Z,99502.57
2019-05-23T12:55:10.654Z,99502.77
2019-05-23T12:57:40.637Z,99502.81
2019-05-23T13:00:12.972Z,99497.70
2019-05-23T13:02:42.936Z,99504.70
2019-05-23T13:05:13.009Z,99507.16
2019-05-23T13:07:43.041Z,99507.86
2019-05-23T13:10:12.899Z,99515.95
2019-05-23T13:12:42.875Z,99518.25
2019-05-23T13:15:14.515Z,99521.17
2019-05-23T13:17:44.348Z,99517.84
2019-05-23T13:20:14.612Z,99522.17
2019-05-23T13:22:44.617Z,99521.06
2019-05-23T13:25:15.716Z,99511.75
2019-05-23T13:27:45.381Z,99517.50
2019-05-23T13:30:17.134Z,99517.20
2019-05-23T13:32:47.611Z,99523.28
2019-05-23T13:35:17.379Z,99522.72
2019-05-23T13:37:53.500Z,99525.64
2019-05-23T13:40:19.073Z,99526.80
2019-05-23T13:42:49.036Z,99529.73
2019-05-23T13:45:19.452Z,99529.98
2019-05-23T13:47:49.340Z,99534.23
2019-05-23T13:50:20.206Z,99529.58
2019-05-23T13:52:50.672Z,99531.36
2019-05-23T13:55:40.277Z,99542.27
2019-05-23T13:58:11.904Z,99531.45
2019-05-23T14:00:43.230Z,99520.64
2019-05-23T14:03:13.157Z,99524.97
2019-05-23T14:05:43.248Z,99530.47
2019-05-23T14:08:14.526Z,99527.42
2019-05-23T14:11:03.570Z,99525.31
2019-05-23T14:13:34.012Z,99518.19
2019-05-23T14:16:05.947Z,99518.97
2019-05-23T14:18:36.700Z,99518.13
2019-05-23T14:21:06.982Z,99513.03
2019-05-23T14:23:36.764Z,99516.78
2019-05-23T14:26:06.827Z,99527.46
2019-05-23T14:28:36.604Z,99520.77
2019-05-23T14:31:17.491Z,99521.20
2019-05-23T14:33:51.589Z,99525.69
2019-05-23T14:36:33.086Z,99531.19
2019-05-23T14:39:04.555Z,99530.89
2019-05-23T14:41:45.128Z,99535.10
2019-05-23T14:44:14.992Z,99534.18
2019-05-23T14:47:03.397Z,99550.05
2019-05-23T14:49:38.042Z,99548.05
2019-05-23T14:52:27.671Z,99549.66
2019-05-23T14:54:58.964Z,99554.59
2019-05-23T14:57:28.659Z,99557.98
2019-05-23T14:59:58.617Z,99559.87
2019-05-23T15:02:29.389Z,99561.39
2019-05-23T15:04:59.977Z,99564.19
2019-05-23T15:07:30.493Z,99568.56
2019-05-23T15:10:00.217Z,99571.16
2019-05-23T15:12:29.934Z,99571.42
2019-05-23T15:15:00.304Z,99563.03
2019-05-23T15:17:31.071Z,99563.77
2019-05-23T15:20:00.845Z,99560.11
2019-05-23T15:22:31.477Z,99555.97
2019-05-23T15:25:01.271Z,99552.77
2019-05-23T15:27:33.212Z,99553.81
2019-05-23T15:30:02.628Z,99553.13
2019-05-23T15:32:32.653Z,99554.75
2019-05-23T15:35:02.813Z,99552.83
2019-05-23T15:37:33.410Z,99546.27
2019-05-23T15:40:03.412Z,99545.72
2019-05-23T15:42:33.734Z,99538.56
2019-05-23T15:45:04.043Z,99534.18
2019-05-23T15:47:35.541Z,99533.09
2019-05-23T15:50:11.480Z,99528.69
2019-05-23T15:52:40.989Z,99524.98
2019-05-23T15:55:22.029Z,99527.59
2019-05-23T15:57:53.526Z,99517.39
2019-05-23T16:00:41.311Z,99523.35
2019-05-23T16:03:13.897Z,99530.42
2019-05-23T16:05:44.016Z,99536.07
2019-05-23T16:08:14.426Z,99533.02
2019-05-23T16:10:44.603Z,99541.10
2019-05-23T16:13:14.753Z,99544.11
2019-05-23T16:15:45.540Z,99544.02
2019-05-23T16:18:15.305Z,99548.86
2019-05-23T16:20:45.795Z,99552.56
2019-05-23T16:23:15.846Z,99556.35
2019-05-23T16:25:45.470Z,99551.16
2019-05-23T16:28:15.384Z,99559.25
2019-05-23T16:30:45.274Z,99550.81
2019-05-23T16:33:15.128Z,99551.06
2019-05-23T16:35:44.842Z,99551.34
2019-05-23T16:38:14.746Z,99555.02
2019-05-23T16:40:45.213Z,99557.48
2019-05-23T16:43:15.507Z,99552.88
2019-05-23T16:45:45.543Z,99550.91
2019-05-23T16:48:15.530Z,99545.09
2019-05-23T16:50:45.611Z,99545.66
2019-05-23T16:53:15.957Z,99545.80
2019-05-23T16:55:48.616Z,99555.20
2019-05-23T16:58:35.403Z,99556.11
2019-05-23T17:01:23.317Z,99569.22
2019-05-23T17:03:45.149Z,99564.92
2019-05-23T17:06:29.844Z,99565.48
2019-05-23T17:09:14.694Z,99572.15
2019-05-23T17:11:46.470Z,99569.78
2019-05-23T17:14:17.805Z,99570.27
2019-05-23T17:16:54.871Z,99572.03
2019-05-23T17:19:39.758Z,99572.27
2019-05-23T17:22:11.436Z,99555.67
2019-05-23T17:24:45.748Z,99563.28
2019-05-23T17:27:23.410Z,99567.20
2019-05-23T17:29:54.741Z,99565.77
2019-05-23T17:32:26.148Z,99564.78
2019-05-23T17:34:56.778Z,99562.16
2019-05-23T17:37:26.699Z,99560.34
2019-05-23T17:39:56.980Z,99551.28
2019-05-23T17:42:27.736Z,99558.38
2019-05-23T17:44:57.724Z,99547.11
2019-05-23T17:47:28.825Z,99553.49
2019-05-23T17:49:58.708Z,99556.23
2019-05-23T17:52:28.470Z,99557.80
2019-05-23T17:54:58.357Z,99567.08
2019-05-23T17:57:29.129Z,99566.95
2019-05-23T17:59:59.110Z,99565.61
2019-05-23T18:02:29.287Z,99571.05
2019-05-23T18:04:59.110Z,99567.06
2019-05-23T18:07:28.838Z,99562.67
2019-05-23T18:09:58.869Z,99568.59
2019-05-23T18:12:29.011Z,99566.46
2019-05-23T18:14:59.088Z,99569.02
2019-05-23T18:17:31.361Z,99569.72
2019-05-23T18:20:03.446Z,99578.55
2019-05-23T18:22:34.656Z,99571.22
2019-05-23T18:25:09.764Z,99578.45
2019-05-23T18:27:40.514Z,99580.30
2019-05-23T18:30:12.259Z,99584.11
2019-05-23T18:32:42.095Z,99586.14
2019-05-23T18:35:12.425Z,99587.04
2019-05-23T18:37:42.205Z,99594.67
2019-05-23T18:40:12.448Z,99594.79
2019-05-23T18:42:42.796Z,99599.31
2019-05-23T18:45:13.562Z,99596.64
2019-05-23T18:47:44.166Z,99603.44
2019-05-23T18:50:15.344Z,99605.68
2019-05-23T18:52:45.086Z,99601.61
2019-05-23T18:55:17.191Z,99601.45
2019-05-23T18:57:46.985Z,99604.34
2019-05-23T19:00:17.468Z,99610.69
2019-05-23T19:02:47.689Z,99606.95
2019-05-23T19:05:17.566Z,99611.50
2019-05-23T19:07:47.256Z,99605.35
2019-05-23T19:10:18.088Z,99610.59
2019-05-23T19:12:48.994Z,99614.18
2019-05-23T19:15:19.353Z,99617.36
2019-05-23T19:17:49.664Z,99618.19
2019-05-23T19:20:20.197Z,99615.38
2019-05-23T19:22:50.171Z,99612.03
2019-05-23T19:25:21.598Z,99610.48
2019-05-23T19:27:51.495Z,99619.89
2019-05-23T19:30:21.619Z,99614.06
2019-05-23T19:32:51.864Z,99615.45
2019-05-23T19:35:22.764Z,99617.89
2019-05-23T19:37:52.967Z,99616.30
2019-05-23T19:40:23.824Z,99615.33
2019-05-23T19:42:53.613Z,99618.33
2019-05-23T19:45:23.942Z,99610.05
2019-05-23T19:47:54.036Z,99612.47
2019-05-23T19:50:25.925Z,99606.94
2019-05-23T19:52:56.509Z,99612.70
2019-05-23T19:55:26.928Z,99606.79
2019-05-23T19:57:56.885Z,99609.67
2019-05-23T20:00:27.561Z,99609.14
2019-05-23T20:02:59.023Z,99602.30
2019-05-23T20:05:34.310Z,99607.70
2019-05-23T20:08:04.872Z,99600.02
2019-05-23T20:10:35.431Z,99605.84
2019-05-23T20:13:06.131Z,99609.13
2019-05-23T20:15:36.474Z,99598.45
2019-05-23T20:18:07.855Z,99604.13
2019-05-23T20:20:40.060Z,99600.94
2019-05-23T20:23:10.253Z,99605.52
2019-05-23T20:25:40.470Z,99611.17
2019-05-23T20:28:10.804Z,99613.37
2019-05-23T20:30:52.499Z,99617.84
2019-05-23T20:33:22.548Z,99619.13
2019-05-23T20:35:52.783Z,99621.69
2019-05-23T20:38:23.254Z,99620.78
2019-05-23T20:40:54.040Z,99624.52
2019-05-23T20:43:23.653Z,99622.72
2019-05-23T20:45:56.093Z,99625.05
2019-05-23T20:48:26.096Z,99626.63
2019-05-23T20:50:56.610Z,99631.34
2019-05-23T20:53:26.559Z,99629.80
2019-05-23T20:55:56.229Z,99631.58
2019-05-23T20:58:28.025Z,99628.09
2019-05-23T21:01:02.536Z,99626.95
2019-05-23T21:03:35.487Z,99621.42
2019-05-23T21:06:07.064Z,99627.71
2019-05-23T21:08:37.390Z,99628.86
2019-05-23T21:11:07.053Z,99635.14
2019-05-23T21:13:36.755Z,99627.53
2019-05-23T21:16:06.782Z,99628.58
2019-05-23T21:18:36.563Z,99627.08
2019-05-23T21:21:06.823Z,99635.72
2019-05-23T21:23:37.417Z,99631.00
2019-05-23T21:26:07.213Z,99632.23
2019-05-23T21:28:37.248Z,99629.66
2019-05-23T21:31:08.702Z,99626.19
2019-05-23T21:33:38.419Z,99633.07
2019-05-23T21:36:08.164Z,99635.91
2019-05-23T21:38:37.988Z,99628.91
2019-05-23T21:41:07.707Z,99628.30
2019-05-23T21:43:37.453Z,99622.33
2019-05-23T21:46:08.758Z,99624.34
2019-05-23T21:48:40.349Z,99620.42
2019-05-23T21:51:10.050Z,99617.06
2019-05-23T21:53:40.213Z,99615.44
2019-05-23T21:56:10.053Z,99617.42
2019-05-23T21:58:39.876Z,99621.55
2019-05-23T22:01:10.714Z,99622.37
2019-05-23T22:03:51.118Z,99626.83
2019-05-23T22:06:30.486Z,99628.95
2019-05-23T22:09:01.924Z,99625.38
2019-05-23T22:11:31.608Z,99621.77
2019-05-23T22:14:01.255Z,99623.75
2019-05-23T22:16:30.863Z,99623.48
2019-05-23T22:19:00.555Z,99619.78
2019-05-23T22:21:30.516Z,99613.76
2019-05-23T22:24:00.329Z,99612.09
2019-05-23T22:26:30.039Z,99620.91
2019-05-23T22:29:00.467Z,99621.42
2019-05-23T22:31:30.067Z,99622.33
2019-05-23T22:34:20.089Z,99623.31
2019-05-23T22:36:49.690Z,99626.37
2019-05-23T22:39:19.686Z,99629.07
2019-05-23T22:41:49.403Z,99630.57
2019-05-23T22:44:19.348Z,99626.06
2019-05-23T22:46:49.132Z,99635.39
2019-05-23T22:49:18.862Z,99636.14
2019-05-23T22:51:48.468Z,99635.56
2019-05-23T22:54:18.088Z,99639.62
2019-05-23T22:56:47.672Z,99633.52
2019-05-23T22:59:17.309Z,99637.16
2019-05-23T23:01:47.051Z,99636.81
2019-05-23T23:04:17.169Z,99637.23
2019-05-23T23:06:46.708Z,99637.20
2019-05-23T23:09:16.325Z,99625.52
2019-05-23T23:11:46.278Z,99629.71
2019-05-23T23:14:15.889Z,99627.42
2019-05-23T23:16:46.293Z,99629.71
2019-05-23T23:19:16.125Z,99630.69
2019-05-23T23:21:45.679Z,99626.70
2019-05-23T23:24:15.214Z,99630.38
2019-05-23T23:26:45.769Z,99622.94
2019-05-23T23:29:15.403Z,99624.42
2019-05-23T23:31:45.026Z,99624.86
2019-05-23T23:34:14.758Z,99624.46
2019-05-23T23:36:44.304Z,99624.86
2019-05-23T23:39:14.175Z,99623.53
2019-05-23T23:41:43.767Z,99619.29
2019-05-23T23:44:13.708Z,99618.58
2019-05-23T23:47:00.954Z,99617.27
2019-05-23T23:49:48.429Z,99612.92
2019-05-23T23:52:35.577Z,99614.83
2019-05-23T23:55:24.864Z,99616.98
2019-05-23T23:57:59.856Z,99615.41
